createdAt,value
2017-12-19T00:00:23.979Z,1.76
2017-12-19T00:01:23.966Z,1.81
2017-12-19T00:02:23.964Z,1.80
2017-12-19T00:03:23.954Z,1.80
2017-12-19T00:04:23.945Z,1.80
2017-12-19T00:05:23.938Z,1.78
2017-12-19T00:06:23.927Z,1.88
2017-12-19T00:07:23.962Z,1.84
2017-12-19T00:08:23.914Z,1.81
2017-12-19T00:09:23.902Z,1.81
2017-12-19T00:10:23.928Z,1.88
2017-12-19T00:11:27.505Z,1.87
2017-12-19T00:12:23.885Z,1.81
2017-12-19T00:13:23.868Z,1.91
2017-12-19T00:14:24.854Z,1.88
2017-12-19T00:15:23.855Z,1.91
2017-12-19T00:16:23.849Z,1.87
2017-12-19T00:17:23.845Z,1.91
2017-12-19T00:18:23.823Z,1.89
2017-12-19T00:19:23.831Z,1.89
2017-12-19T00:20:23.807Z,1.91
2017-12-19T00:21:23.798Z,1.89
2017-12-19T00:22:23.794Z,1.87
2017-12-19T00:23:23.785Z,1.80
2017-12-19T00:24:23.778Z,1.91
2017-12-19T00:25:23.765Z,1.94
2017-12-19T00:26:23.759Z,1.92
2017-12-19T00:27:23.751Z,1.85
2017-12-19T00:28:23.737Z,1.91
2017-12-19T00:29:23.732Z,1.87
2017-12-19T00:30:23.724Z,1.81
2017-12-19T00:31:23.717Z,1.89
2017-12-19T00:32:23.711Z,1.89
2017-12-19T00:33:23.699Z,1.91
2017-12-19T00:34:23.691Z,1.87
2017-12-19T00:35:23.681Z,1.84
2017-12-19T00:36:23.685Z,1.85
2017-12-19T00:37:23.663Z,1.91
2017-12-19T00:38:23.651Z,1.89
2017-12-19T00:39:23.647Z,1.91
2017-12-19T00:40:23.642Z,1.88
2017-12-19T00:41:23.632Z,1.88
2017-12-19T00:42:23.632Z,1.88
2017-12-19T00:43:23.614Z,1.95
2017-12-19T00:44:23.603Z,1.88
2017-12-19T00:45:23.592Z,1.89
2017-12-19T00:46:23.584Z,1.97
2017-12-19T00:47:23.582Z,2.02
2017-12-19T00:48:23.571Z,1.97
2017-12-19T00:49:23.601Z,2.10
2017-12-19T00:50:23.549Z,2.02
2017-12-19T00:51:23.541Z,2.00
2017-12-19T00:52:23.536Z,2.08
2017-12-19T00:53:23.532Z,2.10
2017-12-19T00:54:23.524Z,2.07
2017-12-19T00:55:23.509Z,2.06
2017-12-19T00:56:23.504Z,2.06
2017-12-19T00:57:23.491Z,2.10
2017-12-19T00:58:23.488Z,2.00
2017-12-19T00:59:23.481Z,2.10
2017-12-19T01:00:23.467Z,2.06
2017-12-19T01:01:23.468Z,2.10
2017-12-19T01:02:23.457Z,2.10
2017-12-19T01:03:23.447Z,2.07
2017-12-19T01:04:23.435Z,2.06
2017-12-19T01:05:23.431Z,2.07
2017-12-19T01:06:23.418Z,2.04
2017-12-19T01:07:23.414Z,2.11
2017-12-19T01:08:23.401Z,2.11
2017-12-19T01:09:23.397Z,2.06
2017-12-19T01:10:23.391Z,2.04
2017-12-19T01:11:23.382Z,2.04
2017-12-19T01:12:23.369Z,2.08
2017-12-19T01:13:23.359Z,2.10
2017-12-19T01:14:23.352Z,2.14
2017-12-19T01:15:23.344Z,2.10
2017-12-19T01:16:23.334Z,2.10
2017-12-19T01:17:23.330Z,2.22
2017-12-19T01:18:23.318Z,2.15
2017-12-19T01:19:23.309Z,2.13
2017-12-19T01:20:23.303Z,2.17
2017-12-19T01:21:23.294Z,2.24
2017-12-19T01:22:23.285Z,2.25
2017-12-19T01:23:23.282Z,2.10
2017-12-19T01:24:23.273Z,2.13
2017-12-19T01:25:23.259Z,2.10
2017-12-19T01:26:23.248Z,2.10
2017-12-19T01:27:23.243Z,2.08
2017-12-19T01:28:23.234Z,2.06
2017-12-19T01:29:23.224Z,2.11
2017-12-19T01:30:23.222Z,2.15
2017-12-19T01:31:23.208Z,2.17
2017-12-19T01:32:23.205Z,2.08
2017-12-19T01:33:23.190Z,2.14
2017-12-19T01:34:23.189Z,2.08
2017-12-19T01:35:23.179Z,2.18
2017-12-19T01:36:23.173Z,2.14
2017-12-19T01:37:23.165Z,2.18
2017-12-19T01:38:23.153Z,2.08
2017-12-19T01:39:23.158Z,2.13
2017-12-19T01:40:23.137Z,2.10
2017-12-19T01:41:23.127Z,2.08
2017-12-19T01:42:23.123Z,2.11
2017-12-19T01:43:23.108Z,2.13
2017-12-19T01:44:23.104Z,2.13
2017-12-19T01:45:23.094Z,2.25
2017-12-19T01:46:23.090Z,2.08
2017-12-19T01:47:23.080Z,2.10
2017-12-19T01:48:23.070Z,2.15
2017-12-19T01:49:23.068Z,2.18
2017-12-19T01:50:23.057Z,2.17
2017-12-19T01:51:23.052Z,2.18
2017-12-19T01:52:23.040Z,2.20
2017-12-19T01:53:23.027Z,2.18
2017-12-19T01:54:23.022Z,2.24
2017-12-19T01:55:23.011Z,2.26
2017-12-19T01:56:23.003Z,2.20
2017-12-19T01:57:22.990Z,2.25
2017-12-19T01:58:22.984Z,2.17
2017-12-19T01:59:22.975Z,2.24
2017-12-19T02:00:22.970Z,2.20
2017-12-19T02:01:22.965Z,2.29
2017-12-19T02:02:22.954Z,2.29
2017-12-19T02:03:22.945Z,2.18
2017-12-19T02:04:22.945Z,2.26
2017-12-19T02:05:22.926Z,2.28
2017-12-19T02:06:22.922Z,2.24
2017-12-19T02:07:22.908Z,2.33
2017-12-19T02:08:22.906Z,2.35
2017-12-19T02:09:22.891Z,2.26
2017-12-19T02:10:22.896Z,2.32
2017-12-19T02:11:22.886Z,2.28
2017-12-19T02:12:22.873Z,2.29
2017-12-19T02:13:22.863Z,2.35
2017-12-19T02:14:22.870Z,2.28
2017-12-19T02:15:22.849Z,2.28
2017-12-19T02:16:22.850Z,2.31
2017-12-19T02:17:22.836Z,2.26
2017-12-19T02:18:22.818Z,2.28
2017-12-19T02:19:22.814Z,2.35
2017-12-19T02:20:22.802Z,2.33
2017-12-19T02:21:22.795Z,2.35
2017-12-19T02:22:22.789Z,2.35
2017-12-19T02:23:22.784Z,2.36
2017-12-19T02:24:22.773Z,2.35
2017-12-19T02:25:22.760Z,2.25
2017-12-19T02:26:22.761Z,2.26
2017-12-19T02:27:22.750Z,2.29
2017-12-19T02:28:22.739Z,2.29
2017-12-19T02:29:22.731Z,2.26
2017-12-19T02:30:22.731Z,2.29
2017-12-19T02:31:22.722Z,2.29
2017-12-19T02:32:22.706Z,2.26
2017-12-19T02:33:22.707Z,2.31
2017-12-19T02:34:22.693Z,2.35
2017-12-19T02:35:22.681Z,2.33
2017-12-19T02:36:22.673Z,2.26
2017-12-19T02:37:22.668Z,2.29
2017-12-19T02:38:22.658Z,2.28
2017-12-19T02:39:22.646Z,2.31
2017-12-19T02:40:22.641Z,2.28
2017-12-19T02:41:22.633Z,2.31
2017-12-19T02:42:22.623Z,2.31
2017-12-19T02:43:22.618Z,2.33
2017-12-19T02:44:22.606Z,2.26
2017-12-19T02:45:22.598Z,2.26
2017-12-19T02:46:22.602Z,2.32
2017-12-19T02:47:22.585Z,2.29
2017-12-19T02:48:22.579Z,2.29
2017-12-19T02:49:22.574Z,2.36
2017-12-19T02:50:22.567Z,2.31
2017-12-19T02:51:22.553Z,2.29
2017-12-19T02:52:22.540Z,2.35
2017-12-19T02:53:22.531Z,2.31
2017-12-19T02:54:22.522Z,2.20
2017-12-19T02:55:22.525Z,2.32
2017-12-19T02:56:22.506Z,2.24
2017-12-19T02:57:22.501Z,2.28
2017-12-19T02:58:22.495Z,2.26
2017-12-19T02:59:22.490Z,2.26
2017-12-19T03:00:22.504Z,2.29
2017-12-19T03:01:22.471Z,2.31
2017-12-19T03:02:22.457Z,2.31
2017-12-19T03:03:22.451Z,2.22
2017-12-19T03:04:22.441Z,2.26
2017-12-19T03:05:22.435Z,2.29
2017-12-19T03:06:22.436Z,2.29
2017-12-19T03:07:22.417Z,2.29
2017-12-19T03:08:22.433Z,2.35
2017-12-19T03:09:22.401Z,2.24
2017-12-19T03:10:22.398Z,2.20
2017-12-19T03:11:22.383Z,2.32
2017-12-19T03:12:22.376Z,2.35
2017-12-19T03:13:22.365Z,2.32
2017-12-19T03:14:22.362Z,2.32
2017-12-19T03:15:22.357Z,2.32
2017-12-19T03:16:22.344Z,2.28
2017-12-19T03:17:22.342Z,2.32
2017-12-19T03:18:22.324Z,2.25
2017-12-19T03:19:22.318Z,2.25
2017-12-19T03:20:22.316Z,2.33
2017-12-19T03:21:22.296Z,2.31
2017-12-19T03:22:22.293Z,2.31
2017-12-19T03:23:22.296Z,2.33
2017-12-19T03:24:22.276Z,2.25
2017-12-19T03:25:22.268Z,2.38
2017-12-19T03:26:22.264Z,2.33
2017-12-19T03:27:22.248Z,2.33
2017-12-19T03:28:22.264Z,2.33
2017-12-19T03:29:22.246Z,2.35
2017-12-19T03:30:22.248Z,2.29
2017-12-19T03:31:22.232Z,2.29
2017-12-19T03:32:22.222Z,2.31
2017-12-19T03:33:22.214Z,2.32
2017-12-19T03:34:22.193Z,2.33
2017-12-19T03:35:22.206Z,2.29
2017-12-19T03:36:22.186Z,2.31
2017-12-19T03:37:22.172Z,2.36
2017-12-19T03:38:22.162Z,2.35
2017-12-19T03:39:22.153Z,2.38
2017-12-19T03:40:22.147Z,2.32
2017-12-19T03:41:22.135Z,2.35
2017-12-19T03:42:22.127Z,2.43
2017-12-19T03:43:22.118Z,2.36
2017-12-19T03:44:22.137Z,2.38
2017-12-19T03:45:22.104Z,2.38
2017-12-19T03:46:22.096Z,2.33
2017-12-19T03:47:22.094Z,2.35
2017-12-19T03:48:22.091Z,2.31
2017-12-19T03:49:22.081Z,2.25
2017-12-19T03:50:22.094Z,2.35
2017-12-19T03:51:22.051Z,2.32
2017-12-19T03:52:22.069Z,2.33
2017-12-19T03:53:22.038Z,2.35
2017-12-19T03:54:22.029Z,2.36
2017-12-19T03:55:22.034Z,2.32
2017-12-19T03:56:22.019Z,2.29
2017-12-19T03:57:22.008Z,2.25
2017-12-19T03:58:21.994Z,2.35
2017-12-19T03:59:21.993Z,2.39
2017-12-19T04:00:21.982Z,2.32
2017-12-19T04:01:21.976Z,2.33
2017-12-19T04:02:21.970Z,2.35
2017-12-19T04:03:21.959Z,2.35
2017-12-19T04:04:21.946Z,2.39
2017-12-19T04:05:21.938Z,2.31
2017-12-19T04:06:21.928Z,2.32
2017-12-19T04:07:21.920Z,2.35
2017-12-19T04:08:21.913Z,2.35
2017-12-19T04:09:21.919Z,2.35
2017-12-19T04:10:21.899Z,2.38
2017-12-19T04:11:21.887Z,2.32
2017-12-19T04:12:21.881Z,2.32
2017-12-19T04:13:21.873Z,2.33
2017-12-19T04:14:21.866Z,2.38
2017-12-19T04:15:21.863Z,2.39
2017-12-19T04:16:21.851Z,2.38
2017-12-19T04:17:21.841Z,2.42
2017-12-19T04:18:21.831Z,2.32
2017-12-19T04:19:21.824Z,2.38
2017-12-19T04:20:21.818Z,2.35
2017-12-19T04:21:21.803Z,2.38
2017-12-19T04:22:21.805Z,2.38
2017-12-19T04:23:21.787Z,2.42
2017-12-19T04:24:21.793Z,2.38
2017-12-19T04:25:21.774Z,2.43
2017-12-19T04:26:21.767Z,2.38
2017-12-19T04:27:21.755Z,2.35
2017-12-19T04:28:21.747Z,2.33
2017-12-19T04:29:21.775Z,2.31
2017-12-19T04:30:21.741Z,2.36
2017-12-19T04:31:21.736Z,2.35
2017-12-19T04:32:21.749Z,2.38
2017-12-19T04:33:21.715Z,2.35
2017-12-19T04:34:21.702Z,2.36
2017-12-19T04:35:21.693Z,2.42
2017-12-19T04:36:21.693Z,2.33
2017-12-19T04:37:21.679Z,2.38
2017-12-19T04:38:21.676Z,2.39
2017-12-19T04:39:21.657Z,2.42
2017-12-19T04:40:21.654Z,2.39
2017-12-19T04:41:21.644Z,2.38
2017-12-19T04:42:21.640Z,2.38
2017-12-19T04:43:21.628Z,2.42
2017-12-19T04:44:21.617Z,2.42
2017-12-19T04:45:21.608Z,2.35
2017-12-19T04:46:21.600Z,2.39
2017-12-19T04:47:21.601Z,2.35
2017-12-19T04:48:21.590Z,2.35
2017-12-19T04:49:21.590Z,2.36
2017-12-19T04:50:21.631Z,2.42
2017-12-19T04:51:21.562Z,2.39
2017-12-19T04:52:21.553Z,2.39
2017-12-19T04:53:21.547Z,2.39
2017-12-19T04:54:21.538Z,2.31
2017-12-19T04:55:21.532Z,2.36
2017-12-19T04:56:21.520Z,2.39
2017-12-19T04:57:21.510Z,2.35
2017-12-19T04:58:23.047Z,2.33
2017-12-19T04:59:21.493Z,2.38
2017-12-19T05:00:21.486Z,2.38
2017-12-19T05:01:21.474Z,2.36
2017-12-19T05:02:21.464Z,2.49
2017-12-19T05:03:21.472Z,2.44
2017-12-19T05:04:21.457Z,2.51
2017-12-19T05:05:21.446Z,2.46
2017-12-19T05:06:21.433Z,2.51
2017-12-19T05:07:21.449Z,2.60
2017-12-19T05:08:21.417Z,2.64
2017-12-19T05:09:21.416Z,2.65
2017-12-19T05:10:21.398Z,2.57
2017-12-19T05:11:21.400Z,2.60
2017-12-19T05:12:21.384Z,2.56
2017-12-19T05:13:21.379Z,2.54
2017-12-19T05:14:21.373Z,2.53
2017-12-19T05:15:21.365Z,2.53
2017-12-19T05:16:29.986Z,2.65
2017-12-19T05:18:15.723Z,2.56
2017-12-19T05:19:15.697Z,2.46
2017-12-19T05:21:10.068Z,2.46
2017-12-19T05:22:10.055Z,2.60
2017-12-19T05:24:03.420Z,2.60
2017-12-19T05:25:03.388Z,2.49
2017-12-19T05:27:06.350Z,2.50
2017-12-19T05:28:06.295Z,2.47
2017-12-19T05:29:59.673Z,2.50
2017-12-19T05:30:59.690Z,2.51
2017-12-19T05:32:54.065Z,2.47
2017-12-19T05:33:53.996Z,2.49
2017-12-19T05:34:53.986Z,2.47
2017-12-19T05:35:53.979Z,2.33
2017-12-19T05:36:53.959Z,2.39
2017-12-19T05:37:53.959Z,2.36
2017-12-19T05:38:53.961Z,2.36
2017-12-19T05:39:53.940Z,2.44
2017-12-19T05:40:53.932Z,2.42
2017-12-19T05:41:53.928Z,2.33
2017-12-19T05:42:53.914Z,2.43
2017-12-19T05:43:53.904Z,2.38
2017-12-19T05:44:53.898Z,2.32
2017-12-19T05:45:53.886Z,2.33
2017-12-19T05:46:53.889Z,2.31
2017-12-19T05:47:53.879Z,2.32
2017-12-19T05:48:53.868Z,2.32
2017-12-19T05:49:53.854Z,2.31
2017-12-19T05:50:53.844Z,2.33
2017-12-19T05:51:53.844Z,2.35
2017-12-19T05:52:53.830Z,2.42
2017-12-19T05:53:53.823Z,2.44
2017-12-19T05:54:53.814Z,2.31
2017-12-19T05:55:53.810Z,2.33
2017-12-19T05:56:53.799Z,2.29
2017-12-19T05:57:53.792Z,2.29
2017-12-19T05:58:53.805Z,2.29
2017-12-19T05:59:53.777Z,2.32
2017-12-19T06:00:53.768Z,2.31
2017-12-19T06:01:53.757Z,2.25
2017-12-19T06:02:53.760Z,2.17
2017-12-19T06:03:53.741Z,2.17
2017-12-19T06:04:53.738Z,2.26
2017-12-19T06:05:53.724Z,2.22
2017-12-19T06:06:53.712Z,2.31
2017-12-19T06:07:55.578Z,2.29
2017-12-19T06:08:53.705Z,2.26
2017-12-19T06:09:53.688Z,2.31
2017-12-19T06:10:53.702Z,2.29
2017-12-19T06:11:53.671Z,2.29
2017-12-19T06:12:53.659Z,2.17
2017-12-19T06:13:53.652Z,2.18
2017-12-19T06:14:53.641Z,2.15
2017-12-19T06:15:53.635Z,2.17
2017-12-19T06:16:53.635Z,2.14
2017-12-19T06:17:53.615Z,2.17
2017-12-19T06:18:53.612Z,2.10
2017-12-19T06:19:53.605Z,2.17
2017-12-19T06:20:53.594Z,2.04
2017-12-19T06:21:53.584Z,2.11
2017-12-19T06:22:53.577Z,2.07
2017-12-19T06:23:53.581Z,2.11
2017-12-19T06:24:53.566Z,2.00
2017-12-19T06:25:53.550Z,1.99
2017-12-19T06:26:53.541Z,2.06
2017-12-19T06:27:53.531Z,2.18
2017-12-19T06:28:53.524Z,2.24
2017-12-19T06:29:53.514Z,2.14
2017-12-19T06:30:53.508Z,2.10
2017-12-19T06:31:54.347Z,2.15
2017-12-19T06:32:53.491Z,2.18
2017-12-19T06:33:53.480Z,2.24
2017-12-19T06:34:53.472Z,2.20
2017-12-19T06:35:53.461Z,2.24
2017-12-19T06:36:53.449Z,2.17
2017-12-19T06:37:53.474Z,2.22
2017-12-19T06:38:53.456Z,2.24
2017-12-19T06:39:53.448Z,2.24
2017-12-19T06:40:53.419Z,2.28
2017-12-19T06:41:55.108Z,2.28
2017-12-19T06:42:54.107Z,2.24
2017-12-19T06:43:58.084Z,2.20
2017-12-19T06:44:55.097Z,2.24
2017-12-19T06:46:04.103Z,2.25
2017-12-19T06:46:58.113Z,2.22
2017-12-19T06:47:53.351Z,2.20
2017-12-19T06:48:53.373Z,2.22
2017-12-19T06:49:53.380Z,2.29
2017-12-19T06:50:53.367Z,2.26
2017-12-19T06:51:53.391Z,2.32
2017-12-19T06:52:53.363Z,2.28
2017-12-19T06:53:53.362Z,2.24
2017-12-19T06:54:53.313Z,2.31
2017-12-19T06:55:53.289Z,2.29
2017-12-19T06:56:53.273Z,2.29
2017-12-19T06:57:53.279Z,2.26
2017-12-19T06:58:55.085Z,2.29
2017-12-19T06:59:55.117Z,2.31
2017-12-19T07:00:54.111Z,2.31
2017-12-19T07:01:53.317Z,2.29
2017-12-19T07:02:53.231Z,2.31
2017-12-19T07:03:53.248Z,2.32
2017-12-19T07:04:53.214Z,2.35
2017-12-19T07:05:53.289Z,2.42
2017-12-19T07:06:53.198Z,2.35
2017-12-19T07:07:53.235Z,2.32
2017-12-19T07:08:53.173Z,2.32
2017-12-19T07:09:53.167Z,2.38
2017-12-19T07:10:53.194Z,2.38
2017-12-19T07:11:53.165Z,2.32
2017-12-19T07:12:53.141Z,2.35
2017-12-19T07:13:53.129Z,2.39
2017-12-19T07:14:53.123Z,2.35
2017-12-19T07:15:53.123Z,2.35
2017-12-19T07:16:53.126Z,2.38
2017-12-19T07:17:53.096Z,2.49
2017-12-19T07:18:53.095Z,2.49
2017-12-19T07:19:53.081Z,2.44
2017-12-19T07:20:53.072Z,2.46
2017-12-19T07:21:53.062Z,2.50
2017-12-19T07:22:53.052Z,2.50
2017-12-19T07:23:53.039Z,2.49
2017-12-19T07:24:53.041Z,2.44
2017-12-19T07:25:53.023Z,2.39
2017-12-19T07:26:53.015Z,2.53
2017-12-19T07:27:53.008Z,2.53
2017-12-19T07:28:52.998Z,2.51
2017-12-19T07:29:52.989Z,2.53
2017-12-19T07:30:52.982Z,2.49
2017-12-19T07:31:52.978Z,2.53
2017-12-19T07:32:52.964Z,2.53
2017-12-19T07:33:52.961Z,2.53
2017-12-19T07:34:52.954Z,2.54
2017-12-19T07:35:52.940Z,2.51
2017-12-19T07:36:52.959Z,2.50
2017-12-19T07:37:52.924Z,2.44
2017-12-19T07:38:54.682Z,2.47
2017-12-19T07:39:52.921Z,2.51
2017-12-19T07:40:52.896Z,2.51
2017-12-19T07:41:52.892Z,2.56
2017-12-19T07:42:52.881Z,2.65
2017-12-19T07:43:52.902Z,2.61
2017-12-19T07:44:52.888Z,2.50
2017-12-19T07:45:52.856Z,2.60
2017-12-19T07:46:52.849Z,2.57
2017-12-19T07:47:52.842Z,2.61
2017-12-19T07:48:52.830Z,2.56
2017-12-19T07:49:52.819Z,2.62
2017-12-19T07:50:52.835Z,2.64
2017-12-19T07:51:52.803Z,2.60
2017-12-19T07:52:52.791Z,2.69
2017-12-19T07:53:52.785Z,2.75
2017-12-19T07:54:52.780Z,2.67
2017-12-19T07:55:52.775Z,2.67
2017-12-19T07:56:52.764Z,2.77
2017-12-19T07:57:52.761Z,2.80
2017-12-19T07:58:52.751Z,2.69
2017-12-19T07:59:52.745Z,2.69
2017-12-19T08:00:52.729Z,2.72
2017-12-19T08:01:52.716Z,2.74
2017-12-19T08:02:52.717Z,2.89
2017-12-19T08:03:52.712Z,2.89
2017-12-19T08:04:52.705Z,2.86
2017-12-19T08:05:52.687Z,2.83
2017-12-19T08:06:52.684Z,2.97
2017-12-19T08:07:52.730Z,2.87
2017-12-19T08:08:52.668Z,2.98
2017-12-19T08:09:52.655Z,2.97
2017-12-19T08:10:52.652Z,2.95
2017-12-19T08:11:52.645Z,2.87
2017-12-19T08:12:52.636Z,2.97
2017-12-19T08:13:52.626Z,3.00
2017-12-19T08:14:52.619Z,3.04
2017-12-19T08:15:52.628Z,3.01
2017-12-19T08:16:52.602Z,3.04
2017-12-19T08:17:52.596Z,3.05
2017-12-19T08:18:52.585Z,3.05
2017-12-19T08:19:52.578Z,3.10
2017-12-19T08:20:52.575Z,3.04
2017-12-19T08:21:53.255Z,3.07
2017-12-19T08:22:52.565Z,3.03
2017-12-19T08:23:52.550Z,3.08
2017-12-19T08:24:52.542Z,3.11
2017-12-19T08:25:52.536Z,3.08
2017-12-19T08:26:52.526Z,3.08
2017-12-19T08:27:52.525Z,3.08
2017-12-19T08:28:52.533Z,3.05
2017-12-19T08:29:52.502Z,2.98
2017-12-19T08:30:52.496Z,3.10
2017-12-19T08:31:52.485Z,3.10
2017-12-19T08:32:52.501Z,3.08
2017-12-19T08:33:52.469Z,3.07
2017-12-19T08:34:52.461Z,3.03
2017-12-19T08:35:52.457Z,3.00
2017-12-19T08:36:52.456Z,3.04
2017-12-19T08:37:52.493Z,3.04
2017-12-19T08:38:52.438Z,3.03
2017-12-19T08:39:52.431Z,3.01
2017-12-19T08:40:52.418Z,3.05
2017-12-19T08:41:52.408Z,3.08
2017-12-19T08:42:52.423Z,3.14
2017-12-19T08:43:52.446Z,3.11
2017-12-19T08:44:52.388Z,3.14
2017-12-19T08:45:52.378Z,3.13
2017-12-19T08:46:52.374Z,3.14
2017-12-19T08:47:52.366Z,3.19
2017-12-19T08:48:52.358Z,3.28
2017-12-19T08:49:52.353Z,3.23
2017-12-19T08:50:52.349Z,3.22
2017-12-19T08:51:52.338Z,3.28
2017-12-19T08:52:52.326Z,3.18
2017-12-19T08:53:52.322Z,3.22
2017-12-19T08:54:52.313Z,3.16
2017-12-19T08:55:52.303Z,3.10
2017-12-19T08:56:52.294Z,3.07
2017-12-19T08:57:52.293Z,3.13
2017-12-19T08:58:52.280Z,3.04
2017-12-19T08:59:52.270Z,3.05
2017-12-19T09:00:52.266Z,3.07
2017-12-19T09:01:52.259Z,3.07
2017-12-19T09:02:52.253Z,3.07
2017-12-19T09:03:52.243Z,3.11
2017-12-19T09:04:52.238Z,3.07
2017-12-19T09:05:52.226Z,3.11
2017-12-19T09:06:52.226Z,3.16
2017-12-19T09:07:52.213Z,3.18
2017-12-19T09:08:52.207Z,3.16
2017-12-19T09:09:52.202Z,3.16
2017-12-19T09:10:52.194Z,3.14
2017-12-19T09:11:52.183Z,3.25
2017-12-19T09:12:52.175Z,3.26
2017-12-19T09:13:52.166Z,3.13
2017-12-19T09:14:52.160Z,3.14
2017-12-19T09:15:52.154Z,3.22
2017-12-19T09:16:52.139Z,3.25
2017-12-19T09:17:52.135Z,3.25
2017-12-19T09:18:52.129Z,3.21
2017-12-19T09:19:52.120Z,3.22
2017-12-19T09:20:52.106Z,3.23
2017-12-19T09:21:52.103Z,3.25
2017-12-19T09:22:52.102Z,3.22
2017-12-19T09:23:52.101Z,3.23
2017-12-19T09:24:52.082Z,3.23
2017-12-19T09:25:52.075Z,3.25
2017-12-19T09:26:52.126Z,3.23
2017-12-19T09:27:52.059Z,3.16
2017-12-19T09:28:52.059Z,3.25
2017-12-19T09:29:52.072Z,3.28
2017-12-19T09:30:52.252Z,3.25
2017-12-19T09:31:52.116Z,3.25
2017-12-19T09:32:52.020Z,3.26
2017-12-19T09:33:52.011Z,3.31
2017-12-19T09:34:52.009Z,3.32
2017-12-19T09:35:52.142Z,3.37
2017-12-19T09:36:52.050Z,3.41
2017-12-19T09:37:52.241Z,3.44
2017-12-19T09:38:51.977Z,3.44
2017-12-19T09:39:51.978Z,3.44
2017-12-19T09:40:51.962Z,3.42
2017-12-19T09:41:51.955Z,3.50
2017-12-19T09:42:51.945Z,3.47
2017-12-19T09:43:51.937Z,3.47
2017-12-19T09:44:52.108Z,3.45
2017-12-19T09:45:51.927Z,3.44
2017-12-19T09:46:52.162Z,3.51
2017-12-19T09:47:52.131Z,3.55
2017-12-19T09:48:51.897Z,3.47
2017-12-19T09:49:51.900Z,3.50
2017-12-19T09:50:51.887Z,3.53
2017-12-19T09:51:51.880Z,3.48
2017-12-19T09:52:51.952Z,3.40
2017-12-19T09:53:51.863Z,3.31
2017-12-19T09:54:51.884Z,3.28
2017-12-19T09:55:51.849Z,3.28
2017-12-19T09:56:51.854Z,3.41
2017-12-19T09:57:51.839Z,3.31
2017-12-19T09:58:51.831Z,3.36
2017-12-19T09:59:51.830Z,3.25
2017-12-19T10:00:51.868Z,3.29
2017-12-19T10:01:51.806Z,3.36
2017-12-19T10:02:51.797Z,3.47
2017-12-19T10:03:51.791Z,3.45
2017-12-19T10:04:51.846Z,3.45
2017-12-19T10:05:51.770Z,3.34
2017-12-19T10:06:51.886Z,3.44
2017-12-19T10:07:51.759Z,3.42
2017-12-19T10:08:51.746Z,3.42
2017-12-19T10:09:51.742Z,3.53
2017-12-19T10:10:51.781Z,3.48
2017-12-19T10:11:51.860Z,3.55
2017-12-19T10:12:51.722Z,3.47
2017-12-19T10:13:51.732Z,3.41
2017-12-19T10:14:51.885Z,3.51
2017-12-19T10:15:51.789Z,3.41
2017-12-19T10:16:51.693Z,3.42
2017-12-19T10:17:51.688Z,3.40
2017-12-19T10:18:51.680Z,3.34
2017-12-19T10:19:51.664Z,3.32
2017-12-19T10:20:51.666Z,3.28
2017-12-19T10:21:51.668Z,3.34
2017-12-19T10:22:51.780Z,3.29
2017-12-19T10:23:51.850Z,3.29
2017-12-19T10:24:51.649Z,3.31
2017-12-19T10:25:51.623Z,3.28
2017-12-19T10:26:51.618Z,3.26
2017-12-19T10:27:51.794Z,3.34
2017-12-19T10:28:51.739Z,3.40
2017-12-19T10:29:51.596Z,3.36
2017-12-19T10:30:51.581Z,3.50
2017-12-19T10:31:51.593Z,3.44
2017-12-19T10:32:51.570Z,3.42
2017-12-19T10:33:51.568Z,3.47
2017-12-19T10:34:51.759Z,3.50
2017-12-19T10:35:51.599Z,3.50
2017-12-19T10:36:51.542Z,3.63
2017-12-19T10:37:51.765Z,3.70
2017-12-19T10:38:51.679Z,3.69
2017-12-19T10:39:51.521Z,3.63
2017-12-19T10:40:51.806Z,3.77
2017-12-19T10:41:51.647Z,3.76
2017-12-19T10:42:51.693Z,3.56
2017-12-19T10:43:51.523Z,3.53
2017-12-19T10:44:51.605Z,3.48
2017-12-19T10:45:51.503Z,3.66
2017-12-19T10:46:51.629Z,3.59
2017-12-19T10:47:51.479Z,3.68
2017-12-19T10:48:51.754Z,3.62
2017-12-19T10:49:51.660Z,3.60
2017-12-19T10:50:51.449Z,3.73
2017-12-19T10:51:51.440Z,3.56
2017-12-19T10:52:51.432Z,3.56
2017-12-19T10:53:51.666Z,3.60
2017-12-19T10:54:51.482Z,3.65
2017-12-19T10:55:51.435Z,3.60
2017-12-19T10:56:51.389Z,3.65
2017-12-19T10:57:51.391Z,3.63
2017-12-19T10:58:51.381Z,3.50
2017-12-19T10:59:51.412Z,3.44
2017-12-19T11:00:51.359Z,3.50
2017-12-19T11:01:51.354Z,3.51
2017-12-19T11:02:51.347Z,3.47
2017-12-19T11:03:51.425Z,3.50
2017-12-19T11:04:51.332Z,3.48
2017-12-19T11:05:51.332Z,3.51
2017-12-19T11:06:51.326Z,3.47
2017-12-19T11:07:51.437Z,3.53
2017-12-19T11:08:51.315Z,3.45
2017-12-19T11:09:51.295Z,3.44
2017-12-19T11:10:51.359Z,3.45
2017-12-19T11:11:51.339Z,3.41
2017-12-19T11:12:51.276Z,3.41
2017-12-19T11:13:51.402Z,3.36
2017-12-19T11:14:51.408Z,3.37
2017-12-19T11:15:51.252Z,3.32
2017-12-19T11:16:51.239Z,3.42
2017-12-19T11:17:51.234Z,3.37
2017-12-19T11:18:51.342Z,3.31
2017-12-19T11:19:51.217Z,3.36
2017-12-19T11:20:51.216Z,3.45
2017-12-19T11:21:51.220Z,3.50
2017-12-19T11:22:51.233Z,3.53
2017-12-19T11:23:51.277Z,3.60
2017-12-19T11:24:51.201Z,3.63
2017-12-19T11:25:51.211Z,3.60
2017-12-19T11:26:51.208Z,3.56
2017-12-19T11:27:51.193Z,3.65
2017-12-19T11:28:51.166Z,3.81
2017-12-19T11:29:51.303Z,3.77
2017-12-19T11:30:51.140Z,3.83
2017-12-19T11:31:51.131Z,3.78
2017-12-19T11:32:51.127Z,3.68
2017-12-19T11:33:51.237Z,3.77
2017-12-19T11:34:51.113Z,3.73
2017-12-19T11:35:51.180Z,3.65
2017-12-19T11:36:51.094Z,3.63
2017-12-19T11:37:51.102Z,3.63
2017-12-19T11:38:51.080Z,3.63
2017-12-19T11:39:51.382Z,3.74
2017-12-19T11:40:51.060Z,3.66
2017-12-19T11:41:51.090Z,3.73
2017-12-19T11:42:51.050Z,3.80
2017-12-19T11:43:51.040Z,3.68
2017-12-19T11:44:51.037Z,3.63
2017-12-19T11:45:51.121Z,3.68
2017-12-19T11:46:51.018Z,3.55
2017-12-19T11:47:51.037Z,3.55
2017-12-19T11:48:51.012Z,3.63
2017-12-19T11:49:51.007Z,3.58
2017-12-19T11:50:50.990Z,3.65
2017-12-19T11:51:50.983Z,3.51
2017-12-19T11:52:51.194Z,3.55
2017-12-19T11:53:51.096Z,3.51
2017-12-19T11:54:51.080Z,3.48
2017-12-19T11:55:50.984Z,3.48
2017-12-19T11:56:50.943Z,3.51
2017-12-19T11:57:51.229Z,3.53
2017-12-19T11:58:50.939Z,3.51
2017-12-19T11:59:50.937Z,3.50
2017-12-19T12:00:50.930Z,3.63
2017-12-19T12:01:50.921Z,3.56
2017-12-19T12:02:50.955Z,3.76
2017-12-19T12:03:50.919Z,3.70
2017-12-19T12:04:50.886Z,3.69
2017-12-19T12:05:50.879Z,3.86
2017-12-19T12:06:50.873Z,3.78
2017-12-19T12:07:50.868Z,3.88
2017-12-19T12:08:50.867Z,3.87
2017-12-19T12:09:50.858Z,3.99
2017-12-19T12:10:50.848Z,3.91
2017-12-19T12:11:50.834Z,4.01
2017-12-19T12:12:50.885Z,3.98
2017-12-19T12:13:50.820Z,4.06
2017-12-19T12:14:50.815Z,3.98
2017-12-19T12:15:50.811Z,4.02
2017-12-19T12:16:50.797Z,3.96
2017-12-19T12:17:50.794Z,4.16
2017-12-19T12:18:50.788Z,4.10
2017-12-19T12:19:50.801Z,4.12
2017-12-19T12:20:50.818Z,4.17
2017-12-19T12:21:50.777Z,4.12
2017-12-19T12:22:50.757Z,4.17
2017-12-19T12:23:50.750Z,4.26
2017-12-19T12:24:50.768Z,4.34
2017-12-19T12:25:50.740Z,4.35
2017-12-19T12:26:50.759Z,4.40
2017-12-19T12:27:50.731Z,4.24
2017-12-19T12:28:50.718Z,4.38
2017-12-19T12:29:50.712Z,4.34
2017-12-19T12:30:50.707Z,4.26
2017-12-19T12:31:50.700Z,4.31
2017-12-19T12:32:50.693Z,4.20
2017-12-19T12:33:50.688Z,4.23
2017-12-19T12:34:50.686Z,4.23
2017-12-19T12:35:50.665Z,4.32
2017-12-19T12:36:50.667Z,4.40
2017-12-19T12:37:50.668Z,4.32
2017-12-19T12:38:50.654Z,4.23
2017-12-19T12:39:50.643Z,4.34
2017-12-19T12:40:50.639Z,4.38
2017-12-19T12:41:50.630Z,4.41
2017-12-19T12:42:50.624Z,4.42
2017-12-19T12:43:50.612Z,4.38
2017-12-19T12:44:50.609Z,4.37
2017-12-19T12:45:50.605Z,4.41
2017-12-19T12:46:50.596Z,4.38
2017-12-19T12:47:50.592Z,4.26
2017-12-19T12:48:50.581Z,4.35
2017-12-19T12:49:50.578Z,4.26
2017-12-19T12:50:50.573Z,4.32
2017-12-19T12:51:50.564Z,4.23
2017-12-19T12:52:50.554Z,4.22
2017-12-19T12:53:50.557Z,4.24
2017-12-19T12:54:50.551Z,4.30
2017-12-19T12:55:50.535Z,4.40
2017-12-19T12:56:50.534Z,4.26
2017-12-19T12:57:50.528Z,4.17
2017-12-19T12:58:50.512Z,4.17
2017-12-19T12:59:50.510Z,4.01
2017-12-19T13:00:50.502Z,4.12
2017-12-19T13:01:50.503Z,4.12
2017-12-19T13:02:50.491Z,4.10
2017-12-19T13:03:50.487Z,4.24
2017-12-19T13:04:50.472Z,4.20
2017-12-19T13:05:50.472Z,4.10
2017-12-19T13:06:50.464Z,4.05
2017-12-19T13:07:50.454Z,4.04
2017-12-19T13:08:50.445Z,4.01
2017-12-19T13:09:50.444Z,4.16
2017-12-19T13:10:50.447Z,4.10
2017-12-19T13:11:50.438Z,3.98
2017-12-19T13:12:50.423Z,4.01
2017-12-19T13:13:50.417Z,4.05
2017-12-19T13:14:50.422Z,4.10
2017-12-19T13:15:50.407Z,4.06
2017-12-19T13:16:50.416Z,4.10
2017-12-19T13:17:50.387Z,4.13
2017-12-19T13:18:50.379Z,4.05
2017-12-19T13:19:50.373Z,4.04
2017-12-19T13:20:50.364Z,4.06
2017-12-19T13:21:50.379Z,4.06
2017-12-19T13:22:50.353Z,3.95
2017-12-19T13:23:50.351Z,3.95